sensor_id;sensor_type;location;lat;lon;timestamp;temperature;humidity
6756;DHT22;3415;51.148;7.014;2023-01-30T00:01:40;3.20;1.00
6756;DHT22;3415;51.148;7.014;2023-01-30T00:04:07;3.30;1.00
6756;DHT22;3415;51.148;7.014;2023-01-30T00:06:37;3.30;1.00
6756;DHT22;3415;51.148;7.014;2023-01-30T00:09:04;3.30;1.00
6756;DHT22;3415;51.148;7.014;2023-01-30T00:11:31;3.30;1.00
6756;DHT22;3415;51.148;7.014;2023-01-30T00:14:00;3.30;1.00
6756;DHT22;3415;51.148;7.014;2023-01-30T00:16:26;3.40;1.00
6756;DHT22;3415;51.148;7.014;2023-01-30T00:18:53;3.40;1.00
6756;DHT22;3415;51.148;7.014;2023-01-30T00:21:20;3.50;1.00
6756;DHT22;3415;51.148;7.014;2023-01-30T00:23:47;3.50;1.00
6756;DHT22;3415;51.148;7.014;2023-01-30T00:26:14;3.50;1.00
6756;DHT22;3415;51.148;7.014;2023-01-30T00:28:41;3.50;1.00
6756;DHT22;3415;51.148;7.014;2023-01-30T00:31:10;3.50;1.00
6756;DHT22;3415;51.148;7.014;2023-01-30T00:33:38;3.60;1.00
6756;DHT22;3415;51.148;7.014;2023-01-30T00:36:05;3.60;1.00
6756;DHT22;3415;51.148;7.014;2023-01-30T00:38:33;3.60;1.00
6756;DHT22;3415;51.148;7.014;2023-01-30T00:41:00;3.70;1.00
6756;DHT22;3415;51.148;7.014;2023-01-30T00:43:27;3.60;1.00
6756;DHT22;3415;51.148;7.014;2023-01-30T00:46:15;3.70;1.00
6756;DHT22;3415;51.148;7.014;2023-01-30T00:49:05;3.70;1.00
6756;DHT22;3415;51.148;7.014;2023-01-30T00:51:32;3.70;1.00
6756;DHT22;3415;51.148;7.014;2023-01-30T00:53:59;3.70;1.00
6756;DHT22;3415;51.148;7.014;2023-01-30T00:56:26;3.70;1.00
6756;DHT22;3415;51.148;7.014;2023-01-30T00:58:53;3.80;1.00
6756;DHT22;3415;51.148;7.014;2023-01-30T01:01:21;3.80;1.00
6756;DHT22;3415;51.148;7.014;2023-01-30T01:03:48;3.70;1.00
6756;DHT22;3415;51.148;7.014;2023-01-30T01:06:15;3.80;1.00
6756;DHT22;3415;51.148;7.014;2023-01-30T01:08:42;3.80;1.00
6756;DHT22;3415;51.148;7.014;2023-01-30T01:11:09;3.80;1.00
6756;DHT22;3415;51.148;7.014;2023-01-30T01:13:49;3.80;1.00
6756;DHT22;3415;51.148;7.014;2023-01-30T01:16:20;3.90;1.00
6756;DHT22;3415;51.148;7.014;2023-01-30T01:18:48;3.80;1.00
6756;DHT22;3415;51.148;7.014;2023-01-30T01:21:15;3.80;1.00
6756;DHT22;3415;51.148;7.014;2023-01-30T01:23:43;3.90;1.00
6756;DHT22;3415;51.148;7.014;2023-01-30T01:26:10;3.90;1.00
6756;DHT22;3415;51.148;7.014;2023-01-30T01:28:37;3.90;1.00
6756;DHT22;3415;51.148;7.014;2023-01-30T01:31:08;3.90;1.00
6756;DHT22;3415;51.148;7.014;2023-01-30T01:33:37;3.90;1.00
6756;DHT22;3415;51.148;7.014;2023-01-30T01:36:05;3.90;1.00
6756;DHT22;3415;51.148;7.014;2023-01-30T01:38:33;3.90;1.00
6756;DHT22;3415;51.148;7.014;2023-01-30T01:41:00;3.90;1.00
6756;DHT22;3415;51.148;7.014;2023-01-30T01:43:29;3.90;1.00
6756;DHT22;3415;51.148;7.014;2023-01-30T01:45:59;3.90;1.00
6756;DHT22;3415;51.148;7.014;2023-01-30T01:48:31;3.90;1.00
6756;DHT22;3415;51.148;7.014;2023-01-30T01:51:04;3.90;1.00
6756;DHT22;3415;51.148;7.014;2023-01-30T01:53:38;3.90;1.00
6756;DHT22;3415;51.148;7.014;2023-01-30T01:56:10;4.00;1.00
6756;DHT22;3415;51.148;7.014;2023-01-30T01:58:41;4.00;1.00
6756;DHT22;3415;51.148;7.014;2023-01-30T02:01:11;4.00;1.00
6756;DHT22;3415;51.148;7.014;2023-01-30T02:03:41;4.00;1.00
6756;DHT22;3415;51.148;7.014;2023-01-30T02:06:13;4.00;1.00
6756;DHT22;3415;51.148;7.014;2023-01-30T02:08:44;4.00;1.00
6756;DHT22;3415;51.148;7.014;2023-01-30T02:11:18;4.00;1.00
6756;DHT22;3415;51.148;7.014;2023-01-30T02:13:48;4.10;1.00
6756;DHT22;3415;51.148;7.014;2023-01-30T02:16:16;4.20;1.00
6756;DHT22;3415;51.148;7.014;2023-01-30T02:18:44;4.10;1.00
6756;DHT22;3415;51.148;7.014;2023-01-30T02:21:39;4.10;1.00
6756;DHT22;3415;51.148;7.014;2023-01-30T02:24:34;4.00;1.00
6756;DHT22;3415;51.148;7.014;2023-01-30T02:27:17;4.00;1.00
6756;DHT22;3415;51.148;7.014;2023-01-30T02:30:21;4.00;1.00
6756;DHT22;3415;51.148;7.014;2023-01-30T02:33:16;4.10;1.30
6756;DHT22;3415;51.148;7.014;2023-01-30T02:35:50;4.00;35.80
6756;DHT22;3415;51.148;7.014;2023-01-30T02:38:31;4.00;38.70
6756;DHT22;3415;51.148;7.014;2023-01-30T02:41:12;4.10;38.70
6756;DHT22;3415;51.148;7.014;2023-01-30T02:43:55;4.10;51.90
6756;DHT22;3415;51.148;7.014;2023-01-30T02:46:35;4.00;63.20
6756;DHT22;3415;51.148;7.014;2023-01-30T02:49:08;4.00;96.70
6756;DHT22;3415;51.148;7.014;2023-01-30T02:51:41;4.00;99.90
6756;DHT22;3415;51.148;7.014;2023-01-30T02:54:11;4.10;99.90
6756;DHT22;3415;51.148;7.014;2023-01-30T02:56:46;4.10;99.90
6756;DHT22;3415;51.148;7.014;2023-01-30T02:59:20;4.20;99.90
6756;DHT22;3415;51.148;7.014;2023-01-30T03:02:08;4.20;99.90
6756;DHT22;3415;51.148;7.014;2023-01-30T03:05:08;4.20;99.90
6756;DHT22;3415;51.148;7.014;2023-01-30T03:07:48;4.20;99.90
6756;DHT22;3415;51.148;7.014;2023-01-30T03:10:27;4.20;99.90
6756;DHT22;3415;51.148;7.014;2023-01-30T03:13:03;4.20;99.90
6756;DHT22;3415;51.148;7.014;2023-01-30T03:15:34;4.30;99.90
6756;DHT22;3415;51.148;7.014;2023-01-30T03:18:06;4.20;99.90
6756;DHT22;3415;51.148;7.014;2023-01-30T03:20:36;4.30;99.90
6756;DHT22;3415;51.148;7.014;2023-01-30T03:23:03;4.30;99.90
6756;DHT22;3415;51.148;7.014;2023-01-30T03:25:30;4.40;99.90
6756;DHT22;3415;51.148;7.014;2023-01-30T03:27:58;4.40;99.90
6756;DHT22;3415;51.148;7.014;2023-01-30T03:30:25;4.40;99.90
6756;DHT22;3415;51.148;7.014;2023-01-30T03:32:52;4.40;99.90
6756;DHT22;3415;51.148;7.014;2023-01-30T03:35:21;4.40;99.90
6756;DHT22;3415;51.148;7.014;2023-01-30T03:40:16;4.50;99.90
6756;DHT22;3415;51.148;7.014;2023-01-30T03:42:43;4.50;99.90
6756;DHT22;3415;51.148;7.014;2023-01-30T03:45:11;4.50;99.90
6756;DHT22;3415;51.148;7.014;2023-01-30T03:47:38;4.60;99.90
6756;DHT22;3415;51.148;7.014;2023-01-30T03:50:05;4.60;99.90
6756;DHT22;3415;51.148;7.014;2023-01-30T03:52:35;4.60;99.80
6756;DHT22;3415;51.148;7.014;2023-01-30T03:55:02;4.60;97.20
6756;DHT22;3415;51.148;7.014;2023-01-30T03:57:30;4.60;96.30
6756;DHT22;3415;51.148;7.014;2023-01-30T03:59:56;4.60;96.50
6756;DHT22;3415;51.148;7.014;2023-01-30T04:02:23;4.70;97.40
6756;DHT22;3415;51.148;7.014;2023-01-30T04:04:50;4.70;98.20
6756;DHT22;3415;51.148;7.014;2023-01-30T04:07:18;4.60;97.80
6756;DHT22;3415;51.148;7.014;2023-01-30T04:09:46;4.60;98.90
6756;DHT22;3415;51.148;7.014;2023-01-30T04:12:13;4.60;99.90
6756;DHT22;3415;51.148;7.014;2023-01-30T04:14:40;4.70;99.90
6756;DHT22;3415;51.148;7.014;2023-01-30T04:17:07;4.60;99.90
6756;DHT22;3415;51.148;7.014;2023-01-30T04:19:34;4.60;99.90
6756;DHT22;3415;51.148;7.014;2023-01-30T04:22:01;4.60;99.90
6756;DHT22;3415;51.148;7.014;2023-01-30T04:24:28;4.70;99.90
6756;DHT22;3415;51.148;7.014;2023-01-30T04:26:56;4.60;99.90
6756;DHT22;3415;51.148;7.014;2023-01-30T04:29:23;4.60;99.90
6756;DHT22;3415;51.148;7.014;2023-01-30T04:31:50;4.60;99.90
6756;DHT22;3415;51.148;7.014;2023-01-30T04:34:17;4.70;99.90
6756;DHT22;3415;51.148;7.014;2023-01-30T04:36:44;4.60;99.90
6756;DHT22;3415;51.148;7.014;2023-01-30T04:39:11;4.70;99.90
6756;DHT22;3415;51.148;7.014;2023-01-30T04:41:38;4.70;99.90
6756;DHT22;3415;51.148;7.014;2023-01-30T04:44:06;4.60;99.90
6756;DHT22;3415;51.148;7.014;2023-01-30T04:46:33;4.70;99.90
6756;DHT22;3415;51.148;7.014;2023-01-30T04:49:00;4.70;99.90
6756;DHT22;3415;51.148;7.014;2023-01-30T04:51:27;4.70;99.90
6756;DHT22;3415;51.148;7.014;2023-01-30T04:53:54;4.70;99.90
6756;DHT22;3415;51.148;7.014;2023-01-30T04:56:21;4.70;99.90
6756;DHT22;3415;51.148;7.014;2023-01-30T04:58:48;4.60;99.90
6756;DHT22;3415;51.148;7.014;2023-01-30T05:01:21;4.70;99.90
6756;DHT22;3415;51.148;7.014;2023-01-30T05:03:50;4.70;99.90
6756;DHT22;3415;51.148;7.014;2023-01-30T05:06:17;4.70;99.90
6756;DHT22;3415;51.148;7.014;2023-01-30T05:08:47;4.60;99.90
6756;DHT22;3415;51.148;7.014;2023-01-30T05:11:14;4.60;99.90
6756;DHT22;3415;51.148;7.014;2023-01-30T05:13:41;4.60;99.90
6756;DHT22;3415;51.148;7.014;2023-01-30T05:16:09;4.60;99.90
6756;DHT22;3415;51.148;7.014;2023-01-30T05:18:38;4.60;99.90
6756;DHT22;3415;51.148;7.014;2023-01-30T05:21:06;4.60;99.90
6756;DHT22;3415;51.148;7.014;2023-01-30T05:23:34;4.60;99.90
6756;DHT22;3415;51.148;7.014;2023-01-30T05:26:02;4.60;99.90
6756;DHT22;3415;51.148;7.014;2023-01-30T05:28:29;4.60;99.90
6756;DHT22;3415;51.148;7.014;2023-01-30T05:31:00;4.60;99.90
6756;DHT22;3415;51.148;7.014;2023-01-30T05:33:27;4.70;99.90
6756;DHT22;3415;51.148;7.014;2023-01-30T05:35:56;4.70;99.90
6756;DHT22;3415;51.148;7.014;2023-01-30T05:38:23;4.70;99.90
6756;DHT22;3415;51.148;7.014;2023-01-30T05:40:57;4.70;99.90
6756;DHT22;3415;51.148;7.014;2023-01-30T05:43:25;4.80;99.90
6756;DHT22;3415;51.148;7.014;2023-01-30T05:45:53;4.70;99.90
6756;DHT22;3415;51.148;7.014;2023-01-30T05:48:21;4.80;99.90
6756;DHT22;3415;51.148;7.014;2023-01-30T05:50:49;4.80;99.90
6756;DHT22;3415;51.148;7.014;2023-01-30T05:53:19;4.80;1.00
6756;DHT22;3415;51.148;7.014;2023-01-30T05:55:53;4.90;1.00
6756;DHT22;3415;51.148;7.014;2023-01-30T05:58:21;4.90;1.00
6756;DHT22;3415;51.148;7.014;2023-01-30T06:00:48;4.90;1.00
6756;DHT22;3415;51.148;7.014;2023-01-30T06:03:15;4.90;1.00
6756;DHT22;3415;51.148;7.014;2023-01-30T06:05:42;4.90;1.00
6756;DHT22;3415;51.148;7.014;2023-01-30T06:08:10;4.90;1.00
6756;DHT22;3415;51.148;7.014;2023-01-30T06:10:38;4.90;1.00
6756;DHT22;3415;51.148;7.014;2023-01-30T06:13:05;5.00;1.00
6756;DHT22;3415;51.148;7.014;2023-01-30T06:15:32;5.00;1.00
6756;DHT22;3415;51.148;7.014;2023-01-30T06:17:59;5.00;1.00
6756;DHT22;3415;51.148;7.014;2023-01-30T06:20:26;5.00;1.00
6756;DHT22;3415;51.148;7.014;2023-01-30T06:22:53;5.10;1.00
6756;DHT22;3415;51.148;7.014;2023-01-30T06:25:20;5.10;1.00
6756;DHT22;3415;51.148;7.014;2023-01-30T06:27:48;5.10;1.00
6756;DHT22;3415;51.148;7.014;2023-01-30T06:30:16;5.10;1.00
6756;DHT22;3415;51.148;7.014;2023-01-30T06:32:43;5.10;1.00
6756;DHT22;3415;51.148;7.014;2023-01-30T06:35:10;5.20;1.00
6756;DHT22;3415;51.148;7.014;2023-01-30T06:37:37;5.20;1.00
6756;DHT22;3415;51.148;7.014;2023-01-30T06:40:05;5.20;1.00
6756;DHT22;3415;51.148;7.014;2023-01-30T06:45:01;5.20;1.00
6756;DHT22;3415;51.148;7.014;2023-01-30T06:47:28;5.20;1.00
6756;DHT22;3415;51.148;7.014;2023-01-30T06:49:55;5.20;1.00
6756;DHT22;3415;51.148;7.014;2023-01-30T06:52:22;5.20;1.00
6756;DHT22;3415;51.148;7.014;2023-01-30T06:54:49;5.20;1.00
6756;DHT22;3415;51.148;7.014;2023-01-30T06:57:16;5.20;1.00
6756;DHT22;3415;51.148;7.014;2023-01-30T06:59:43;5.30;1.00
6756;DHT22;3415;51.148;7.014;2023-01-30T07:02:12;5.20;1.00
6756;DHT22;3415;51.148;7.014;2023-01-30T07:04:39;5.20;1.00
6756;DHT22;3415;51.148;7.014;2023-01-30T07:07:07;5.30;1.00
6756;DHT22;3415;51.148;7.014;2023-01-30T07:09:34;5.30;1.00
6756;DHT22;3415;51.148;7.014;2023-01-30T07:12:00;5.30;1.00
6756;DHT22;3415;51.148;7.014;2023-01-30T07:14:27;5.30;1.00
6756;DHT22;3415;51.148;7.014;2023-01-30T07:16:54;5.50;1.00
6756;DHT22;3415;51.148;7.014;2023-01-30T07:19:23;5.40;1.00
6756;DHT22;3415;51.148;7.014;2023-01-30T07:21:50;5.60;1.00
6756;DHT22;3415;51.148;7.014;2023-01-30T07:24:16;5.40;1.00
6756;DHT22;3415;51.148;7.014;2023-01-30T07:26:46;5.40;1.00
6756;DHT22;3415;51.148;7.014;2023-01-30T07:29:13;5.40;1.00
6756;DHT22;3415;51.148;7.014;2023-01-30T07:31:40;5.40;1.00
6756;DHT22;3415;51.148;7.014;2023-01-30T07:34:07;5.50;1.00
6756;DHT22;3415;51.148;7.014;2023-01-30T07:36:35;5.60;1.00
6756;DHT22;3415;51.148;7.014;2023-01-30T07:39:02;5.50;1.00
6756;DHT22;3415;51.148;7.014;2023-01-30T07:43:57;5.50;1.00
6756;DHT22;3415;51.148;7.014;2023-01-30T07:46:24;5.50;1.00
6756;DHT22;3415;51.148;7.014;2023-01-30T07:48:51;5.50;1.00
6756;DHT22;3415;51.148;7.014;2023-01-30T07:51:19;5.50;1.00
6756;DHT22;3415;51.148;7.014;2023-01-30T07:53:49;5.50;1.00
6756;DHT22;3415;51.148;7.014;2023-01-30T07:56:17;5.60;1.00
6756;DHT22;3415;51.148;7.014;2023-01-30T07:58:46;5.60;1.00
6756;DHT22;3415;51.148;7.014;2023-01-30T08:01:13;5.60;1.00
6756;DHT22;3415;51.148;7.014;2023-01-30T08:03:41;5.50;1.00
6756;DHT22;3415;51.148;7.014;2023-01-30T08:06:11;5.60;1.00
6756;DHT22;3415;51.148;7.014;2023-01-30T08:08:39;5.60;1.00
6756;DHT22;3415;51.148;7.014;2023-01-30T08:11:08;5.60;1.00
6756;DHT22;3415;51.148;7.014;2023-01-30T08:13:36;5.70;1.00
6756;DHT22;3415;51.148;7.014;2023-01-30T08:16:05;5.70;1.00
6756;DHT22;3415;51.148;7.014;2023-01-30T08:18:33;5.70;1.00
6756;DHT22;3415;51.148;7.014;2023-01-30T08:21:03;5.70;1.00
6756;DHT22;3415;51.148;7.014;2023-01-30T08:23:32;5.70;1.00
6756;DHT22;3415;51.148;7.014;2023-01-30T08:26:01;5.70;1.00
6756;DHT22;3415;51.148;7.014;2023-01-30T08:28:30;5.70;1.00
6756;DHT22;3415;51.148;7.014;2023-01-30T08:30:58;5.80;1.00
6756;DHT22;3415;51.148;7.014;2023-01-30T08:33:25;5.80;1.00
6756;DHT22;3415;51.148;7.014;2023-01-30T08:35:52;5.80;1.00
6756;DHT22;3415;51.148;7.014;2023-01-30T08:38:19;5.90;1.00
6756;DHT22;3415;51.148;7.014;2023-01-30T08:40:45;5.90;1.00
6756;DHT22;3415;51.148;7.014;2023-01-30T08:43:12;6.00;1.00
6756;DHT22;3415;51.148;7.014;2023-01-30T08:45:41;6.10;1.00
6756;DHT22;3415;51.148;7.014;2023-01-30T08:48:08;6.20;1.00
6756;DHT22;3415;51.148;7.014;2023-01-30T08:50:35;6.50;1.00
6756;DHT22;3415;51.148;7.014;2023-01-30T08:53:03;6.60;1.00
6756;DHT22;3415;51.148;7.014;2023-01-30T08:55:31;6.60;1.00
6756;DHT22;3415;51.148;7.014;2023-01-30T08:57:58;6.60;1.00
6756;DHT22;3415;51.148;7.014;2023-01-30T09:00:26;6.50;1.00
6756;DHT22;3415;51.148;7.014;2023-01-30T09:02:55;6.40;1.00
6756;DHT22;3415;51.148;7.014;2023-01-30T09:05:23;6.40;1.00
6756;DHT22;3415;51.148;7.014;2023-01-30T09:07:50;6.40;1.00
6756;DHT22;3415;51.148;7.014;2023-01-30T09:10:17;6.30;1.00
6756;DHT22;3415;51.148;7.014;2023-01-30T09:12:44;6.30;1.00
6756;DHT22;3415;51.148;7.014;2023-01-30T09:15:12;6.30;1.00
6756;DHT22;3415;51.148;7.014;2023-01-30T09:17:39;6.30;1.00
6756;DHT22;3415;51.148;7.014;2023-01-30T09:20:08;6.30;1.00
6756;DHT22;3415;51.148;7.014;2023-01-30T09:22:36;6.30;1.00
6756;DHT22;3415;51.148;7.014;2023-01-30T09:25:04;6.40;1.00
6756;DHT22;3415;51.148;7.014;2023-01-30T09:29:59;6.20;1.00
6756;DHT22;3415;51.148;7.014;2023-01-30T09:32:26;6.30;1.00
6756;DHT22;3415;51.148;7.014;2023-01-30T09:34:53;6.40;1.00
6756;DHT22;3415;51.148;7.014;2023-01-30T09:37:22;6.40;1.00
6756;DHT22;3415;51.148;7.014;2023-01-30T09:39:49;6.40;1.00
6756;DHT22;3415;51.148;7.014;2023-01-30T09:45:43;6.40;1.00
6756;DHT22;3415;51.148;7.014;2023-01-30T09:48:18;6.40;1.00
6756;DHT22;3415;51.148;7.014;2023-01-30T09:54:24;6.50;99.90
6756;DHT22;3415;51.148;7.014;2023-01-30T09:57:00;6.50;99.90
6756;DHT22;3415;51.148;7.014;2023-01-30T09:59:45;6.50;99.90
6756;DHT22;3415;51.148;7.014;2023-01-30T10:02:38;6.60;99.90
6756;DHT22;3415;51.148;7.014;2023-01-30T10:05:08;6.70;99.90
6756;DHT22;3415;51.148;7.014;2023-01-30T10:07:44;6.80;99.90
6756;DHT22;3415;51.148;7.014;2023-01-30T10:10:33;6.60;99.90
6756;DHT22;3415;51.148;7.014;2023-01-30T10:13:17;6.60;99.90
6756;DHT22;3415;51.148;7.014;2023-01-30T10:15:57;6.70;54.20
6756;DHT22;3415;51.148;7.014;2023-01-30T10:18:47;6.70;52.80
6756;DHT22;3415;51.148;7.014;2023-01-30T10:21:35;6.60;41.10
6756;DHT22;3415;51.148;7.014;2023-01-30T10:24:18;6.60;11.20
6756;DHT22;3415;51.148;7.014;2023-01-30T10:26:53;6.50;1.00
6756;DHT22;3415;51.148;7.014;2023-01-30T10:29:25;6.60;1.00
6756;DHT22;3415;51.148;7.014;2023-01-30T10:32:00;6.50;1.00
6756;DHT22;3415;51.148;7.014;2023-01-30T10:34:35;6.50;1.00
6756;DHT22;3415;51.148;7.014;2023-01-30T10:37:06;6.50;1.00
6756;DHT22;3415;51.148;7.014;2023-01-30T10:39:38;6.50;1.00
6756;DHT22;3415;51.148;7.014;2023-01-30T10:42:12;6.50;1.00
6756;DHT22;3415;51.148;7.014;2023-01-30T10:44:40;6.50;1.00
6756;DHT22;3415;51.148;7.014;2023-01-30T10:47:23;6.40;1.00
6756;DHT22;3415;51.148;7.014;2023-01-30T10:50:06;6.40;1.00
6756;DHT22;3415;51.148;7.014;2023-01-30T10:52:45;6.40;1.00
6756;DHT22;3415;51.148;7.014;2023-01-30T10:55:27;6.50;1.00
6756;DHT22;3415;51.148;7.014;2023-01-30T10:58:06;6.40;1.00
6756;DHT22;3415;51.148;7.014;2023-01-30T11:00:42;6.40;1.00
6756;DHT22;3415;51.148;7.014;2023-01-30T11:03:23;6.40;1.00
6756;DHT22;3415;51.148;7.014;2023-01-30T11:05:55;6.40;1.00
6756;DHT22;3415;51.148;7.014;2023-01-30T11:08:25;6.40;1.00
6756;DHT22;3415;51.148;7.014;2023-01-30T11:10:54;6.60;1.00
6756;DHT22;3415;51.148;7.014;2023-01-30T11:13:27;6.50;1.00
6756;DHT22;3415;51.148;7.014;2023-01-30T11:15:57;6.50;1.00
6756;DHT22;3415;51.148;7.014;2023-01-30T11:18:26;6.40;1.00
6756;DHT22;3415;51.148;7.014;2023-01-30T11:21:02;6.50;1.00
6756;DHT22;3415;51.148;7.014;2023-01-30T11:23:32;6.50;1.00
6756;DHT22;3415;51.148;7.014;2023-01-30T11:26:01;6.50;1.00
6756;DHT22;3415;51.148;7.014;2023-01-30T11:28:38;6.50;1.00
6756;DHT22;3415;51.148;7.014;2023-01-30T11:31:16;6.60;1.00
6756;DHT22;3415;51.148;7.014;2023-01-30T11:33:44;6.60;1.00
6756;DHT22;3415;51.148;7.014;2023-01-30T11:36:25;6.60;1.00
6756;DHT22;3415;51.148;7.014;2023-01-30T11:38:57;6.70;1.00
6756;DHT22;3415;51.148;7.014;2023-01-30T11:41:25;6.80;1.00
6756;DHT22;3415;51.148;7.014;2023-01-30T11:43:59;6.90;1.00
6756;DHT22;3415;51.148;7.014;2023-01-30T11:46:30;6.80;1.00
6756;DHT22;3415;51.148;7.014;2023-01-30T11:49:01;6.80;1.00
6756;DHT22;3415;51.148;7.014;2023-01-30T11:51:32;7.00;1.00
6756;DHT22;3415;51.148;7.014;2023-01-30T11:54:01;6.90;1.00
6756;DHT22;3415;51.148;7.014;2023-01-30T11:56:32;6.90;1.00
6756;DHT22;3415;51.148;7.014;2023-01-30T11:59:05;4.40;1.00
6756;DHT22;3415;51.148;7.014;2023-01-30T12:01:35;6.80;1.00
6756;DHT22;3415;51.148;7.014;2023-01-30T12:04:06;6.80;1.00
6756;DHT22;3415;51.148;7.014;2023-01-30T12:06:36;6.80;1.00
6756;DHT22;3415;51.148;7.014;2023-01-30T12:09:06;6.80;1.00
6756;DHT22;3415;51.148;7.014;2023-01-30T12:11:54;6.80;1.00
6756;DHT22;3415;51.148;7.014;2023-01-30T12:14:34;6.80;1.00
6756;DHT22;3415;51.148;7.014;2023-01-30T12:17:11;6.80;1.00
6756;DHT22;3415;51.148;7.014;2023-01-30T12:19:51;6.80;1.00
6756;DHT22;3415;51.148;7.014;2023-01-30T12:22:29;6.90;1.00
6756;DHT22;3415;51.148;7.014;2023-01-30T12:24:59;6.90;1.00
6756;DHT22;3415;51.148;7.014;2023-01-30T12:27:36;6.90;1.00
6756;DHT22;3415;51.148;7.014;2023-01-30T12:30:21;6.90;1.00
6756;DHT22;3415;51.148;7.014;2023-01-30T12:32:55;6.90;1.00
6756;DHT22;3415;51.148;7.014;2023-01-30T12:35:33;6.90;1.00
6756;DHT22;3415;51.148;7.014;2023-01-30T12:38:12;7.00;1.00
6756;DHT22;3415;51.148;7.014;2023-01-30T12:40:53;7.10;1.00
6756;DHT22;3415;51.148;7.014;2023-01-30T12:43:38;7.10;1.00
6756;DHT22;3415;51.148;7.014;2023-01-30T12:46:33;7.20;1.00
6756;DHT22;3415;51.148;7.014;2023-01-30T12:49:28;7.30;1.00
6756;DHT22;3415;51.148;7.014;2023-01-30T12:52:23;7.30;1.00
6756;DHT22;3415;51.148;7.014;2023-01-30T12:55:01;7.40;1.00
6756;DHT22;3415;51.148;7.014;2023-01-30T12:57:38;7.50;1.00
6756;DHT22;3415;51.148;7.014;2023-01-30T13:00:23;7.60;1.00
6756;DHT22;3415;51.148;7.014;2023-01-30T13:03:17;7.40;1.00
6756;DHT22;3415;51.148;7.014;2023-01-30T13:06:03;7.40;1.00
6756;DHT22;3415;51.148;7.014;2023-01-30T13:08:44;7.50;1.00
6756;DHT22;3415;51.148;7.014;2023-01-30T13:11:30;7.30;1.00
6756;DHT22;3415;51.148;7.014;2023-01-30T13:14:09;7.30;1.00
6756;DHT22;3415;51.148;7.014;2023-01-30T13:16:51;7.40;1.00
6756;DHT22;3415;51.148;7.014;2023-01-30T13:19:33;7.40;1.00
6756;DHT22;3415;51.148;7.014;2023-01-30T13:22:09;7.60;1.00
6756;DHT22;3415;51.148;7.014;2023-01-30T13:24:50;7.60;1.00
6756;DHT22;3415;51.148;7.014;2023-01-30T13:27:23;7.70;1.00
6756;DHT22;3415;51.148;7.014;2023-01-30T13:29:51;7.70;1.00
6756;DHT22;3415;51.148;7.014;2023-01-30T13:32:32;7.80;1.00
6756;DHT22;3415;51.148;7.014;2023-01-30T13:35:06;7.70;1.00
6756;DHT22;3415;51.148;7.014;2023-01-30T13:37:41;7.60;1.00
6756;DHT22;3415;51.148;7.014;2023-01-30T13:40:15;7.50;1.00
6756;DHT22;3415;51.148;7.014;2023-01-30T13:42:47;7.50;1.00
6756;DHT22;3415;51.148;7.014;2023-01-30T13:45:19;7.40;1.00
6756;DHT22;3415;51.148;7.014;2023-01-30T13:47:52;7.50;1.00
6756;DHT22;3415;51.148;7.014;2023-01-30T13:50:39;7.50;1.00
6756;DHT22;3415;51.148;7.014;2023-01-30T13:53:17;7.60;1.00
6756;DHT22;3415;51.148;7.014;2023-01-30T13:55:53;7.50;1.00
6756;DHT22;3415;51.148;7.014;2023-01-30T13:58:33;7.50;1.00
6756;DHT22;3415;51.148;7.014;2023-01-30T14:01:08;7.50;1.00
6756;DHT22;3415;51.148;7.014;2023-01-30T14:03:37;7.60;1.00
6756;DHT22;3415;51.148;7.014;2023-01-30T14:06:34;7.50;1.00
6756;DHT22;3415;51.148;7.014;2023-01-30T14:09:16;7.60;1.00
6756;DHT22;3415;51.148;7.014;2023-01-30T14:11:48;7.60;1.00
6756;DHT22;3415;51.148;7.014;2023-01-30T14:14:25;7.80;1.00
6756;DHT22;3415;51.148;7.014;2023-01-30T14:16:55;7.60;1.00
6756;DHT22;3415;51.148;7.014;2023-01-30T14:19:34;7.80;1.00
6756;DHT22;3415;51.148;7.014;2023-01-30T14:22:17;7.60;1.00
6756;DHT22;3415;51.148;7.014;2023-01-30T14:31:49;7.60;1.00
6756;DHT22;3415;51.148;7.014;2023-01-30T14:34:38;7.60;1.00
6756;DHT22;3415;51.148;7.014;2023-01-30T14:37:30;7.60;1.00
6756;DHT22;3415;51.148;7.014;2023-01-30T14:40:40;7.50;1.00
6756;DHT22;3415;51.148;7.014;2023-01-30T14:43:45;7.40;1.00
6756;DHT22;3415;51.148;7.014;2023-01-30T14:46:38;7.40;1.00
6756;DHT22;3415;51.148;7.014;2023-01-30T14:49:24;7.40;1.00
6756;DHT22;3415;51.148;7.014;2023-01-30T14:51:53;7.50;1.00
6756;DHT22;3415;51.148;7.014;2023-01-30T14:54:27;7.50;1.00
6756;DHT22;3415;51.148;7.014;2023-01-30T14:56:58;7.50;1.00
6756;DHT22;3415;51.148;7.014;2023-01-30T14:59:29;7.50;1.00
6756;DHT22;3415;51.148;7.014;2023-01-30T15:02:04;7.40;1.00
6756;DHT22;3415;51.148;7.014;2023-01-30T15:04:40;7.30;1.00
6756;DHT22;3415;51.148;7.014;2023-01-30T15:07:12;7.20;1.00
6756;DHT22;3415;51.148;7.014;2023-01-30T15:09:50;7.20;1.00
6756;DHT22;3415;51.148;7.014;2023-01-30T15:12:35;7.20;1.00
6756;DHT22;3415;51.148;7.014;2023-01-30T15:15:24;7.10;1.00
6756;DHT22;3415;51.148;7.014;2023-01-30T15:18:09;7.10;1.00
6756;DHT22;3415;51.148;7.014;2023-01-30T15:21:00;7.10;1.00
6756;DHT22;3415;51.148;7.014;2023-01-30T15:24:02;7.10;1.00
6756;DHT22;3415;51.148;7.014;2023-01-30T15:26:47;7.10;1.00
6756;DHT22;3415;51.148;7.014;2023-01-30T15:29:36;7.00;1.00
6756;DHT22;3415;51.148;7.014;2023-01-30T15:32:16;7.10;1.00
6756;DHT22;3415;51.148;7.014;2023-01-30T15:34:52;7.10;1.00
6756;DHT22;3415;51.148;7.014;2023-01-30T15:37:32;7.10;1.00
6756;DHT22;3415;51.148;7.014;2023-01-30T15:40:21;7.00;1.00
6756;DHT22;3415;51.148;7.014;2023-01-30T15:42:55;7.00;1.00
6756;DHT22;3415;51.148;7.014;2023-01-30T15:45:35;7.00;1.00
6756;DHT22;3415;51.148;7.014;2023-01-30T15:48:21;6.80;1.00
6756;DHT22;3415;51.148;7.014;2023-01-30T15:51:04;6.80;1.00
6756;DHT22;3415;51.148;7.014;2023-01-30T15:53:34;6.80;1.00
6756;DHT22;3415;51.148;7.014;2023-01-30T15:56:05;6.70;1.00
6756;DHT22;3415;51.148;7.014;2023-01-30T15:58:38;6.70;1.00
6756;DHT22;3415;51.148;7.014;2023-01-30T16:01:07;6.70;1.00
6756;DHT22;3415;51.148;7.014;2023-01-30T16:03:39;6.50;1.00
6756;DHT22;3415;51.148;7.014;2023-01-30T16:06:20;6.50;1.00
6756;DHT22;3415;51.148;7.014;2023-01-30T16:08:56;6.40;1.00
6756;DHT22;3415;51.148;7.014;2023-01-30T16:11:39;6.40;1.00
6756;DHT22;3415;51.148;7.014;2023-01-30T16:14:12;6.50;1.00
6756;DHT22;3415;51.148;7.014;2023-01-30T16:16:41;6.50;1.00
6756;DHT22;3415;51.148;7.014;2023-01-30T16:19:19;6.70;1.00
6756;DHT22;3415;51.148;7.014;2023-01-30T16:21:51;6.50;1.00
6756;DHT22;3415;51.148;7.014;2023-01-30T16:24:20;6.50;1.00
6756;DHT22;3415;51.148;7.014;2023-01-30T16:26:51;6.60;1.00
6756;DHT22;3415;51.148;7.014;2023-01-30T16:29:24;6.60;1.00
6756;DHT22;3415;51.148;7.014;2023-01-30T16:31:52;6.50;1.00
6756;DHT22;3415;51.148;7.014;2023-01-30T16:34:29;6.50;1.00
6756;DHT22;3415;51.148;7.014;2023-01-30T16:37:02;6.50;1.00
6756;DHT22;3415;51.148;7.014;2023-01-30T16:39:33;6.50;1.00
6756;DHT22;3415;51.148;7.014;2023-01-30T16:42:03;6.50;1.00
6756;DHT22;3415;51.148;7.014;2023-01-30T16:44:46;6.50;1.00
6756;DHT22;3415;51.148;7.014;2023-01-30T16:47:22;6.60;1.00
6756;DHT22;3415;51.148;7.014;2023-01-30T16:49:51;6.50;1.00
6756;DHT22;3415;51.148;7.014;2023-01-30T16:52:21;6.50;1.00
6756;DHT22;3415;51.148;7.014;2023-01-30T16:54:51;6.50;1.00
6756;DHT22;3415;51.148;7.014;2023-01-30T16:57:29;6.60;1.00
6756;DHT22;3415;51.148;7.014;2023-01-30T17:00:04;6.60;1.00
6756;DHT22;3415;51.148;7.014;2023-01-30T17:02:36;6.50;1.00
6756;DHT22;3415;51.148;7.014;2023-01-30T17:05:17;6.70;1.00
6756;DHT22;3415;51.148;7.014;2023-01-30T17:07:46;6.50;1.00
6756;DHT22;3415;51.148;7.014;2023-01-30T17:13:33;6.40;1.00
6756;DHT22;3415;51.148;7.014;2023-01-30T17:16:31;6.30;1.00
6756;DHT22;3415;51.148;7.014;2023-01-30T17:18:58;6.30;1.00
6756;DHT22;3415;51.148;7.014;2023-01-30T17:21:28;6.30;1.00
6756;DHT22;3415;51.148;7.014;2023-01-30T17:23:59;6.40;1.00
6756;DHT22;3415;51.148;7.014;2023-01-30T17:26:27;6.40;1.00
6756;DHT22;3415;51.148;7.014;2023-01-30T17:28:55;6.40;1.00
6756;DHT22;3415;51.148;7.014;2023-01-30T17:31:22;6.40;1.00
6756;DHT22;3415;51.148;7.014;2023-01-30T17:33:50;6.40;1.00
6756;DHT22;3415;51.148;7.014;2023-01-30T17:36:19;6.40;1.00